Time;durP1;ratioP1;P1;durP2;ratioP2;P2;SDS_P1;SDS_P2;PMS_P1;PMS_P2;Temp;Humidity;BMP_temperature;BMP_pressure;BME280_temperature;BME280_humidity;BME280_pressure;Samples;Min_cycle;Max_cycle;Signal;HPM_P1;HPM_P2
2023/10/29 00:00:49;;;;;;;8.50;4.73;;;;;;;;;;5050239;28;20270;-68
2023/10/29 00:03:15;;;;;;;5.07;3.47;;;;;;;;;;5035115;28;20183;-69
2023/10/29 00:05:41;;;;;;;7.27;2.97;;;;;;;;;;5035080;28;20191;-69
2023/10/29 00:08:09;;;;;;;8.70;3.93;;;;;;;;;;5034694;28;20182;-67
2023/10/29 00:10:35;;;;;;;6.07;3.73;;;;;;;;;;5034953;28;20179;-66
2023/10/29 00:13:02;;;;;;;9.30;4.30;;;;;;;;;;5050294;28;20187;-66
2023/10/29 00:15:27;;;;;;;5.90;3.13;;;;;;;;;;5034752;28;20202;-67
2023/10/29 00:17:54;;;;;;;7.30;4.50;;;;;;;;;;5036545;28;20198;-66
2023/10/29 00:20:20;;;;;;;6.73;3.97;;;;;;;;;;5034946;28;20175;-66
2023/10/29 00:22:45;;;;;;;4.40;2.83;;;;;;;;;;5050001;28;20182;-66
2023/10/29 00:25:11;;;;;;;3.83;2.63;;;;;;;;;;5034590;28;20639;-69
2023/10/29 00:27:37;;;;;;;6.63;2.90;;;;;;;;;;5034324;28;20227;-68
2023/10/29 00:30:04;;;;;;;4.17;2.60;;;;;;;;;;5034726;28;20264;-68
2023/10/29 00:32:30;;;;;;;4.90;3.20;;;;;;;;;;5034441;28;20179;-69
2023/10/29 00:34:56;;;;;;;5.60;2.90;;;;;;;;;;5049591;28;20562;-68
2023/10/29 00:37:22;;;;;;;7.97;2.93;;;;;;;;;;5034433;28;20191;-68
2023/10/29 00:39:48;;;;;;;5.10;3.67;;;;;;;;;;5049755;28;20241;-69
2023/10/29 00:42:14;;;;;;;6.40;3.20;;;;;;;;;;5034594;28;20179;-69
2023/10/29 00:44:40;;;;;;;5.50;2.80;;;;;;;;;;5034222;28;20179;-68
2023/10/29 00:47:07;;;;;;;5.67;3.53;;;;;;;;;;5034289;28;20215;-69
2023/10/29 00:49:34;;;;;;;5.10;2.77;;;;;;;;;;5049626;28;20653;-68
2023/10/29 00:52:00;;;;;;;5.27;2.40;;;;;;;;;;5049608;28;20266;-68
2023/10/29 00:54:26;;;;;;;7.47;2.87;;;;;;;;;;5034378;28;20691;-69
2023/10/29 00:56:53;;;;;;;3.40;2.63;;;;;;;;;;5036212;28;20269;-68
2023/10/29 00:59:20;;;;;;;7.23;2.77;;;;;;;;;;5049587;28;20183;-68
2023/10/29 01:01:46;;;;;;;4.60;3.07;;;;;;;;;;5034477;28;20240;-69
2023/10/29 01:04:12;;;;;;;4.43;3.20;;;;;;;;;;5050843;28;20183;-69
2023/10/29 01:06:40;;;;;;;6.83;2.90;;;;;;;;;;5035012;28;20209;-69
2023/10/29 01:09:07;;;;;;;4.93;3.07;;;;;;;;;;5049617;28;20187;-69
2023/10/29 01:11:33;;;;;;;4.23;2.63;;;;;;;;;;5049371;28;20183;-69
2023/10/29 01:13:59;;;;;;;4.67;2.80;;;;;;;;;;5034153;28;20187;-68
2023/10/29 01:16:27;;;;;;;7.00;2.77;;;;;;;;;;5034256;28;20230;-69
2023/10/29 01:18:53;;;;;;;5.67;2.90;;;;;;;;;;5048857;28;20205;-68
2023/10/29 01:21:19;;;;;;;4.10;2.47;;;;;;;;;;5049260;28;20183;-69
2023/10/29 01:23:45;;;;;;;5.33;2.50;;;;;;;;;;5049326;28;20189;-68
2023/10/29 01:26:11;;;;;;;3.47;2.17;;;;;;;;;;5033795;28;20199;-68
2023/10/29 01:28:37;;;;;;;3.03;2.10;;;;;;;;;;5033896;28;20290;-68
2023/10/29 01:31:05;;;;;;;5.97;2.20;;;;;;;;;;5033990;28;20179;-68
2023/10/29 01:33:31;;;;;;;6.23;2.60;;;;;;;;;;5033726;28;20178;-68
2023/10/29 01:35:57;;;;;;;3.63;2.50;;;;;;;;;;5033383;28;20218;-68
2023/10/29 01:38:22;;;;;;;4.23;2.40;;;;;;;;;;5048740;28;20175;-69
2023/10/29 01:40:49;;;;;;;5.10;2.27;;;;;;;;;;5033722;28;20254;-68
2023/10/29 01:43:16;;;;;;;6.37;3.00;;;;;;;;;;5033426;28;20553;-68
2023/10/29 01:45:41;;;;;;;5.50;2.30;;;;;;;;;;5048673;28;20187;-68
2023/10/29 01:48:07;;;;;;;4.90;2.10;;;;;;;;;;5048818;28;20290;-66
2023/10/29 01:50:33;;;;;;;3.77;2.20;;;;;;;;;;5033540;28;20329;-68
2023/10/29 01:52:59;;;;;;;3.37;2.23;;;;;;;;;;5033318;28;20182;-68
2023/10/29 01:55:25;;;;;;;5.30;2.10;;;;;;;;;;5048691;28;20202;-68
2023/10/29 01:57:51;;;;;;;7.43;2.50;;;;;;;;;;5034003;28;20278;-68
2023/10/29 02:00:19;;;;;;;3.43;2.20;;;;;;;;;;5048604;28;20199;-68
2023/10/29 02:02:46;;;;;;;5.43;2.80;;;;;;;;;;5048745;28;20182;-68
2023/10/29 02:05:12;;;;;;;6.97;2.60;;;;;;;;;;5033499;28;20175;-69
2023/10/29 02:07:38;;;;;;;6.40;2.70;;;;;;;;;;5033335;28;20206;-69
2023/10/29 02:10:05;;;;;;;8.57;3.03;;;;;;;;;;5049416;28;20322;-68
2023/10/29 02:12:31;;;;;;;4.67;2.67;;;;;;;;;;5048632;28;20225;-68
2023/10/29 02:14:57;;;;;;;9.77;2.37;;;;;;;;;;5048460;28;20245;-68
2023/10/29 02:17:25;;;;;;;8.67;2.33;;;;;;;;;;5048261;28;20288;-68
2023/10/29 02:19:51;;;;;;;4.00;2.23;;;;;;;;;;5033114;28;20633;-67
2023/10/29 02:22:17;;;;;;;4.63;2.27;;;;;;;;;;5033181;28;20179;-68
2023/10/29 02:24:43;;;;;;;8.50;2.70;;;;;;;;;;5057748;22;20300;-70
2023/10/29 02:27:09;;;;;;;4.20;2.47;;;;;;;;;;5030926;28;20274;-70
2023/10/29 02:29:36;;;;;;;5.47;2.67;;;;;;;;;;5032564;28;20229;-69
2023/10/29 02:32:02;;;;;;;5.17;2.50;;;;;;;;;;5034763;28;20182;-70
2023/10/29 02:34:28;;;;;;;4.63;2.57;;;;;;;;;;5035992;28;20191;-70
2023/10/29 02:36:54;;;;;;;5.47;2.40;;;;;;;;;;5035918;28;20207;-70
2023/10/29 02:39:19;;;;;;;3.10;2.20;;;;;;;;;;5036034;28;20179;-70
2023/10/29 02:41:45;;;;;;;3.73;2.10;;;;;;;;;;5051149;28;20197;-70
2023/10/29 02:44:12;;;;;;;5.00;2.43;;;;;;;;;;5051351;28;20183;-70
2023/10/29 02:46:38;;;;;;;6.70;3.47;;;;;;;;;;5036054;28;20179;-70
2023/10/29 02:49:04;;;;;;;6.83;4.10;;;;;;;;;;5051360;28;20190;-70
2023/10/29 02:51:30;;;;;;;9.07;4.80;;;;;;;;;;5035756;28;20207;-69
2023/10/29 02:53:56;;;;;;;8.57;4.23;;;;;;;;;;5035725;28;20195;-70
2023/10/29 02:56:22;;;;;;;4.60;3.70;;;;;;;;;;5035632;28;20211;-69
2023/10/29 02:58:48;;;;;;;4.37;3.10;;;;;;;;;;5051190;28;20179;-70
2023/10/29 03:01:15;;;;;;;7.53;3.07;;;;;;;;;;5035520;28;20552;-69
2023/10/29 03:03:41;;;;;;;5.80;3.33;;;;;;;;;;5035566;28;20189;-69
2023/10/29 03:06:08;;;;;;;4.37;3.13;;;;;;;;;;5035790;28;20209;-70
2023/10/29 03:08:35;;;;;;;6.70;3.30;;;;;;;;;;5035876;28;20179;-69
2023/10/29 03:11:01;;;;;;;5.50;2.90;;;;;;;;;;5035249;28;20668;-69
2023/10/29 03:13:27;;;;;;;4.83;2.93;;;;;;;;;;5035591;28;20233;-69
2023/10/29 03:15:54;;;;;;;9.13;4.40;;;;;;;;;;5050689;28;20215;-69
2023/10/29 03:18:21;;;;;;;8.70;3.53;;;;;;;;;;5035796;28;20258;-67
2023/10/29 03:20:47;;;;;;;7.93;3.33;;;;;;;;;;5035162;28;20178;-67
2023/10/29 03:23:13;;;;;;;7.93;2.87;;;;;;;;;;5035356;28;20539;-67
2023/10/29 03:25:39;;;;;;;5.60;2.87;;;;;;;;;;5034895;28;20297;-67
2023/10/29 03:28:05;;;;;;;5.63;2.67;;;;;;;;;;5050464;28;20206;-67
2023/10/29 03:30:31;;;;;;;5.00;2.27;;;;;;;;;;5035006;28;20179;-69
2023/10/29 03:32:57;;;;;;;5.23;2.27;;;;;;;;;;5035210;28;20183;-67
2023/10/29 03:35:26;;;;;;;6.00;2.10;;;;;;;;;;5050192;28;20223;-69
2023/10/29 03:37:52;;;;;;;7.50;2.43;;;;;;;;;;5035015;28;20209;-67
2023/10/29 03:40:18;;;;;;;5.07;2.63;;;;;;;;;;5034897;28;20175;-69
2023/10/29 03:42:44;;;;;;;5.63;2.50;;;;;;;;;;5034940;28;20181;-69
2023/10/29 03:45:11;;;;;;;4.60;2.20;;;;;;;;;;5035041;28;20231;-67
2023/10/29 03:47:37;;;;;;;2.57;2.13;;;;;;;;;;5050163;28;20614;-69
2023/10/29 03:50:03;;;;;;;4.60;2.13;;;;;;;;;;5035057;28;20181;-70
2023/10/29 03:52:29;;;;;;;6.77;2.53;;;;;;;;;;5035081;28;20175;-67
2023/10/29 03:54:55;;;;;;;5.50;2.83;;;;;;;;;;5034899;28;20405;-67
2023/10/29 03:57:21;;;;;;;4.60;2.50;;;;;;;;;;5049768;28;20183;-69
2023/10/29 03:59:48;;;;;;;5.23;3.03;;;;;;;;;;5035020;28;20177;-70
2023/10/29 04:02:14;;;;;;;5.73;3.30;;;;;;;;;;5034689;28;20182;-69
2023/10/29 04:04:40;;;;;;;4.77;3.23;;;;;;;;;;5034521;28;20199;-69
2023/10/29 04:07:06;;;;;;;6.17;3.40;;;;;;;;;;5034376;28;20254;-69
2023/10/29 04:09:32;;;;;;;5.80;3.50;;;;;;;;;;5034220;28;20638;-67
2023/10/29 04:11:59;;;;;;;7.60;3.87;;;;;;;;;;5049560;28;20175;-66
2023/10/29 04:14:25;;;;;;;7.47;4.60;;;;;;;;;;5033979;28;20332;-69
2023/10/29 04:16:51;;;;;;;7.93;4.10;;;;;;;;;;5034285;28;20306;-67
2023/10/29 04:19:17;;;;;;;6.63;4.40;;;;;;;;;;5034429;28;20182;-69
2023/10/29 04:21:43;;;;;;;7.37;3.87;;;;;;;;;;5049260;28;20230;-66
2023/10/29 04:24:09;;;;;;;6.23;3.40;;;;;;;;;;5033756;28;20171;-67
2023/10/29 04:26:35;;;;;;;4.17;2.93;;;;;;;;;;5034176;28;20184;-67
2023/10/29 04:29:01;;;;;;;5.70;2.13;;;;;;;;;;5034291;28;20180;-66
2023/10/29 04:31:27;;;;;;;5.93;1.90;;;;;;;;;;5033859;28;20260;-68
2023/10/29 04:33:53;;;;;;;2.63;1.90;;;;;;;;;;5034306;28;20678;-67
2023/10/29 04:36:20;;;;;;;3.57;2.20;;;;;;;;;;5033577;28;20660;-68
2023/10/29 04:38:46;;;;;;;3.17;2.00;;;;;;;;;;5049086;28;20214;-67
2023/10/29 04:41:12;;;;;;;5.03;1.80;;;;;;;;;;5034033;28;20171;-68
2023/10/29 04:43:40;;;;;;;3.90;1.57;;;;;;;;;;5034006;28;20174;-68
2023/10/29 04:46:06;;;;;;;2.93;1.50;;;;;;;;;;5033800;28;20693;-67
2023/10/29 04:48:32;;;;;;;2.47;1.60;;;;;;;;;;5034194;28;20271;-67
2023/10/29 04:50:58;;;;;;;5.27;1.60;;;;;;;;;;5049055;28;20245;-68
2023/10/29 04:53:24;;;;;;;1.90;1.70;;;;;;;;;;5033184;28;20285;-67
2023/10/29 04:55:50;;;;;;;6.03;1.80;;;;;;;;;;5033460;28;20211;-68
2023/10/29 04:58:16;;;;;;;2.00;1.70;;;;;;;;;;5033655;28;20573;-67
2023/10/29 05:00:42;;;;;;;1.87;1.60;;;;;;;;;;5033629;28;20258;-67
2023/10/29 05:03:08;;;;;;;6.20;1.57;;;;;;;;;;5033763;28;20179;-68
2023/10/29 05:05:35;;;;;;;4.60;1.67;;;;;;;;;;5048919;28;20285;-68
2023/10/29 05:08:01;;;;;;;1.80;1.50;;;;;;;;;;5033456;28;20171;-68
2023/10/29 05:10:28;;;;;;;2.57;1.60;;;;;;;;;;5033522;28;20653;-68
2023/10/29 05:12:54;;;;;;;1.70;1.30;;;;;;;;;;5033256;28;20557;-67
2023/10/29 05:15:20;;;;;;;2.90;1.60;;;;;;;;;;5033167;28;20213;-68
2023/10/29 05:17:46;;;;;;;2.67;1.43;;;;;;;;;;5033264;28;20183;-68
2023/10/29 05:20:12;;;;;;;1.87;1.40;;;;;;;;;;5048873;28;20637;-68
2023/10/29 05:22:38;;;;;;;5.30;1.63;;;;;;;;;;5033256;28;20656;-67
2023/10/29 05:25:07;;;;;;;1.97;1.40;;;;;;;;;;5033629;28;20218;-68
2023/10/29 05:27:33;;;;;;;3.80;1.40;;;;;;;;;;5033627;28;20211;-68
2023/10/29 05:29:59;;;;;;;4.40;1.20;;;;;;;;;;5033137;28;20183;-68
2023/10/29 05:32:26;;;;;;;3.20;1.43;;;;;;;;;;5033907;28;20185;-68
2023/10/29 05:34:52;;;;;;;4.63;1.50;;;;;;;;;;5034084;28;20195;-66
2023/10/29 05:37:18;;;;;;;3.37;1.30;;;;;;;;;;5040686;28;20182;-68
2023/10/29 05:39:44;;;;;;;3.07;1.33;;;;;;;;;;5042126;28;20176;-68
2023/10/29 05:42:10;;;;;;;4.90;1.57;;;;;;;;;;5035592;28;20569;-68
2023/10/29 05:44:36;;;;;;;2.00;1.43;;;;;;;;;;5035382;28;20205;-68
2023/10/29 05:47:02;;;;;;;4.90;1.50;;;;;;;;;;5036180;28;20180;-68
2023/10/29 05:49:28;;;;;;;5.53;1.57;;;;;;;;;;5051447;28;20179;-67
2023/10/29 05:51:54;;;;;;;4.83;1.80;;;;;;;;;;5033631;28;20186;-67
2023/10/29 05:54:20;;;;;;;3.30;1.47;;;;;;;;;;5033037;28;20175;-68
2023/10/29 05:56:46;;;;;;;3.20;2.13;;;;;;;;;;5048317;28;20206;-68
2023/10/29 05:59:12;;;;;;;4.47;1.90;;;;;;;;;;5032911;28;20172;-68
2023/10/29 06:01:38;;;;;;;3.90;1.80;;;;;;;;;;5032657;28;20175;-68
2023/10/29 06:04:04;;;;;;;2.13;1.40;;;;;;;;;;5033866;28;20625;-69
2023/10/29 06:06:30;;;;;;;4.43;2.00;;;;;;;;;;5037067;28;20710;-68
2023/10/29 06:08:56;;;;;;;3.30;1.73;;;;;;;;;;5052094;28;20282;-68
2023/10/29 06:11:22;;;;;;;4.43;2.20;;;;;;;;;;5051736;28;20190;-68
2023/10/29 06:13:48;;;;;;;6.57;3.83;;;;;;;;;;5036989;28;20179;-68
2023/10/29 06:16:14;;;;;;;2.90;2.10;;;;;;;;;;5036345;28;20218;-68
2023/10/29 06:18:40;;;;;;;7.50;2.10;;;;;;;;;;5051766;28;20214;-68
2023/10/29 06:21:06;;;;;;;5.20;2.53;;;;;;;;;;5051735;28;20195;-67
2023/10/29 06:23:32;;;;;;;5.53;2.47;;;;;;;;;;5036360;28;20178;-68
2023/10/29 06:25:58;;;;;;;4.00;1.67;;;;;;;;;;5036050;28;20692;-68
2023/10/29 06:28:24;;;;;;;3.03;1.50;;;;;;;;;;5036729;28;20175;-68
2023/10/29 06:30:50;;;;;;;5.17;1.80;;;;;;;;;;5036228;28;20662;-68
2023/10/29 06:33:16;;;;;;;5.10;2.00;;;;;;;;;;5036349;28;20183;-67
2023/10/29 06:35:42;;;;;;;3.47;1.63;;;;;;;;;;5035912;28;20298;-68
2023/10/29 06:38:08;;;;;;;4.00;1.53;;;;;;;;;;5037062;28;20182;-68
2023/10/29 06:40:34;;;;;;;2.13;1.50;;;;;;;;;;5037190;28;20253;-68
2023/10/29 06:43:01;;;;;;;6.53;1.57;;;;;;;;;;5051580;28;20183;-68
2023/10/29 06:45:27;;;;;;;4.67;1.90;;;;;;;;;;5051047;28;20203;-68
2023/10/29 06:47:53;;;;;;;6.17;1.70;;;;;;;;;;5036075;28;20175;-68
2023/10/29 06:50:19;;;;;;;4.73;2.30;;;;;;;;;;5035951;28;20181;-67
2023/10/29 06:52:45;;;;;;;5.43;2.10;;;;;;;;;;5051146;28;20183;-67
2023/10/29 06:55:12;;;;;;;6.60;1.70;;;;;;;;;;5035547;28;20206;-68
2023/10/29 06:57:38;;;;;;;4.40;2.10;;;;;;;;;;5050935;28;20175;-68
2023/10/29 07:00:04;;;;;;;4.87;1.70;;;;;;;;;;5035957;28;20237;-68
2023/10/29 07:02:32;;;;;;;7.73;2.20;;;;;;;;;;5035922;28;20664;-68
2023/10/29 07:04:59;;;;;;;7.00;2.07;;;;;;;;;;5050541;28;20203;-67
2023/10/29 07:07:28;;;;;;;2.83;1.77;;;;;;;;;;5035565;28;20253;-67
2023/10/29 07:09:54;;;;;;;4.60;1.67;;;;;;;;;;5035744;28;20266;-66
2023/10/29 07:12:20;;;;;;;6.70;2.10;;;;;;;;;;5051150;28;20234;-68
2023/10/29 07:14:46;;;;;;;5.97;2.23;;;;;;;;;;5050328;28;20680;-68
2023/10/29 07:17:12;;;;;;;5.33;1.80;;;;;;;;;;5034596;28;20305;-68
2023/10/29 07:19:39;;;;;;;3.57;1.63;;;;;;;;;;5051182;28;20183;-67
2023/10/29 07:22:05;;;;;;;4.53;1.83;;;;;;;;;;5035282;28;20190;-67
2023/10/29 07:24:34;;;;;;;6.07;1.70;;;;;;;;;;5050376;28;20211;-68
2023/10/29 07:27:00;;;;;;;4.30;1.80;;;;;;;;;;5050763;28;20183;-67
2023/10/29 07:29:26;;;;;;;6.03;2.30;;;;;;;;;;5036028;28;20191;-68
2023/10/29 07:31:52;;;;;;;6.83;2.37;;;;;;;;;;5035729;28;20233;-67
2023/10/29 07:34:18;;;;;;;4.63;1.93;;;;;;;;;;5051131;28;20193;-68
2023/10/29 07:36:44;;;;;;;9.17;2.10;;;;;;;;;;5051250;28;20225;-66
2023/10/29 07:39:11;;;;;;;7.33;2.13;;;;;;;;;;5036294;28;20660;-68
2023/10/29 07:41:37;;;;;;;5.50;2.13;;;;;;;;;;5050800;28;20273;-68
2023/10/29 07:44:03;;;;;;;8.00;2.87;;;;;;;;;;5035921;28;20209;-67
2023/10/29 07:46:29;;;;;;;6.43;2.10;;;;;;;;;;5050483;28;20194;-68
2023/10/29 07:48:55;;;;;;;4.80;2.00;;;;;;;;;;5035238;28;20175;-68
2023/10/29 07:51:21;;;;;;;4.70;1.70;;;;;;;;;;5034887;28;20175;-68
2023/10/29 07:53:47;;;;;;;6.40;2.07;;;;;;;;;;5034784;28;20198;-68
2023/10/29 07:56:15;;;;;;;4.30;1.70;;;;;;;;;;5034711;28;20207;-67
2023/10/29 07:58:41;;;;;;;5.37;1.97;;;;;;;;;;5035120;28;20178;-68
2023/10/29 08:01:11;;;;;;;3.77;1.97;;;;;;;;;;5050079;28;20183;-66
2023/10/29 08:03:37;;;;;;;5.37;1.67;;;;;;;;;;5034261;28;20178;-66
2023/10/29 08:06:03;;;;;;;2.80;1.93;;;;;;;;;;5034285;28;20289;-67
2023/10/29 08:08:29;;;;;;;6.03;2.00;;;;;;;;;;5035173;28;20258;-66
2023/10/29 08:10:55;;;;;;;7.77;2.17;;;;;;;;;;5035483;28;20684;-66
2023/10/29 08:13:21;;;;;;;4.77;2.40;;;;;;;;;;5050007;28;20252;-68
2023/10/29 08:15:47;;;;;;;6.23;1.73;;;;;;;;;;5050071;28;20222;-67
2023/10/29 08:18:14;;;;;;;9.03;2.20;;;;;;;;;;5034241;28;20179;-66
2023/10/29 08:20:40;;;;;;;8.87;2.10;;;;;;;;;;5034287;28;20274;-66
2023/10/29 08:23:06;;;;;;;5.37;1.87;;;;;;;;;;5049320;28;20535;-66
2023/10/29 08:25:33;;;;;;;4.67;1.80;;;;;;;;;;5033784;28;20210;-67
2023/10/29 08:27:59;;;;;;;5.50;1.80;;;;;;;;;;5048318;28;20195;-66
2023/10/29 08:30:24;;;;;;;4.37;1.60;;;;;;;;;;5034474;28;20254;-66
2023/10/29 08:32:50;;;;;;;8.47;1.70;;;;;;;;;;5035130;28;20199;-66
2023/10/29 08:35:16;;;;;;;6.23;2.00;;;;;;;;;;5037976;28;20262;-66
2023/10/29 08:37:43;;;;;;;7.73;2.13;;;;;;;;;;5038112;28;20197;-66
2023/10/29 08:40:09;;;;;;;4.47;1.90;;;;;;;;;;5051750;28;20183;-66
2023/10/29 08:42:35;;;;;;;7.53;2.80;;;;;;;;;;5036033;28;20266;-66
2023/10/29 08:45:01;;;;;;;7.00;1.97;;;;;;;;;;5036218;28;20234;-66
2023/10/29 08:47:27;;;;;;;8.37;2.27;;;;;;;;;;5034631;28;20269;-67
2023/10/29 08:49:53;;;;;;;5.73;2.10;;;;;;;;;;5034519;28;20185;-66
2023/10/29 08:52:19;;;;;;;6.80;1.90;;;;;;;;;;5034264;28;20179;-66
2023/10/29 08:54:45;;;;;;;6.73;2.30;;;;;;;;;;5033719;28;20241;-66
2023/10/29 08:57:12;;;;;;;3.77;1.63;;;;;;;;;;5034247;28;20241;-65
2023/10/29 08:59:38;;;;;;;11.97;7.33;;;;;;;;;;5033366;28;20178;-66
2023/10/29 09:02:04;;;;;;;13.53;6.80;;;;;;;;;;5033412;28;20172;-66
2023/10/29 09:04:30;;;;;;;13.03;7.27;;;;;;;;;;5033456;28;20220;-66
2023/10/29 09:06:56;;;;;;;7.07;2.60;;;;;;;;;;5048275;28;20606;-66
2023/10/29 09:09:22;;;;;;;4.37;2.07;;;;;;;;;;5032899;28;20179;-66
2023/10/29 09:11:53;;;;;;;3.97;1.97;;;;;;;;;;5033101;28;20229;-67
2023/10/29 09:14:19;;;;;;;6.70;2.47;;;;;;;;;;5033147;28;20237;-66
2023/10/29 09:16:47;;;;;;;6.20;2.60;;;;;;;;;;5033177;28;20672;-66
2023/10/29 09:19:13;;;;;;;5.80;2.40;;;;;;;;;;5048137;28;20585;-66
2023/10/29 09:21:39;;;;;;;7.80;2.40;;;;;;;;;;5033047;28;20254;-67
2023/10/29 09:24:07;;;;;;;6.97;2.23;;;;;;;;;;5033432;28;20603;-68
2023/10/29 09:26:33;;;;;;;6.17;1.93;;;;;;;;;;5048230;28;20218;-66
2023/10/29 09:29:00;;;;;;;5.10;2.27;;;;;;;;;;5048131;28;20183;-66
2023/10/29 09:31:26;;;;;;;7.47;2.10;;;;;;;;;;5032917;28;20238;-67
2023/10/29 09:33:52;;;;;;;7.60;2.40;;;;;;;;;;5032675;28;20183;-66
2023/10/29 09:36:18;;;;;;;5.50;2.10;;;;;;;;;;5032607;28;20210;-66
2023/10/29 09:38:45;;;;;;;7.63;2.50;;;;;;;;;;5047537;28;20183;-66
2023/10/29 09:41:11;;;;;;;4.83;1.90;;;;;;;;;;5033021;28;20171;-67
2023/10/29 09:43:41;;;;;;;7.27;2.10;;;;;;;;;;5032624;28;20190;-67
2023/10/29 09:46:07;;;;;;;8.63;2.90;;;;;;;;;;5032744;28;20660;-67
2023/10/29 09:48:36;;;;;;;7.10;2.10;;;;;;;;;;5033059;28;20179;-67
2023/10/29 09:51:03;;;;;;;5.03;1.80;;;;;;;;;;5032450;28;20262;-66
2023/10/29 09:53:29;;;;;;;6.97;2.10;;;;;;;;;;5047785;28;20220;-66
2023/10/29 09:55:55;;;;;;;7.63;1.73;;;;;;;;;;5047698;28;20297;-67
2023/10/29 09:58:23;;;;;;;8.77;1.80;;;;;;;;;;5032674;28;20641;-67
2023/10/29 10:00:49;;;;;;;4.80;1.53;;;;;;;;;;5032816;28;20490;-67
2023/10/29 10:03:16;;;;;;;5.73;1.80;;;;;;;;;;5032590;28;20186;-68
2023/10/29 10:05:42;;;;;;;6.40;2.00;;;;;;;;;;5032632;28;20205;-66
2023/10/29 10:08:11;;;;;;;9.23;5.47;;;;;;;;;;5032751;28;20556;-67
2023/10/29 10:10:41;;;;;;;8.43;2.40;;;;;;;;;;5032536;28;20189;-67
2023/10/29 10:13:08;;;;;;;4.17;1.80;;;;;;;;;;5032393;28;20183;-68
2023/10/29 10:15:35;;;;;;;3.23;1.63;;;;;;;;;;5032237;28;20210;-66
2023/10/29 10:18:04;;;;;;;4.57;1.70;;;;;;;;;;5032446;28;20262;-66
2023/10/29 10:20:30;;;;;;;4.07;1.40;;;;;;;;;;5032318;28;20206;-67
2023/10/29 10:22:59;;;;;;;4.03;1.73;;;;;;;;;;5032376;28;20175;-67
2023/10/29 10:25:26;;;;;;;4.17;1.70;;;;;;;;;;5047290;28;20285;-67
2023/10/29 10:27:53;;;;;;;3.80;1.50;;;;;;;;;;5032341;28;20178;-67
2023/10/29 10:30:26;;;;;;;4.13;2.07;;;;;;;;;;5032485;28;20240;-66
2023/10/29 10:32:52;;;;;;;2.40;1.50;;;;;;;;;;5032144;28;20564;-67
2023/10/29 10:35:18;;;;;;;3.30;1.60;;;;;;;;;;5047220;28;20222;-67
2023/10/29 10:37:54;;;;;;;4.20;1.67;;;;;;;;;;5047343;28;20194;-68
2023/10/29 10:40:24;;;;;;;5.33;1.77;;;;;;;;;;5047409;28;20672;-67
2023/10/29 10:42:56;;;;;;;6.73;1.50;;;;;;;;;;5047720;28;20257;-68
2023/10/29 10:45:26;;;;;;;1.53;1.40;;;;;;;;;;5047523;28;20209;-68
2023/10/29 10:47:54;;;;;;;3.07;1.40;;;;;;;;;;5047332;28;20236;-67
2023/10/29 10:50:21;;;;;;;3.63;1.90;;;;;;;;;;5047287;28;20211;-68
2023/10/29 10:52:48;;;;;;;3.93;2.00;;;;;;;;;;5050762;28;20194;-67
2023/10/29 10:55:14;;;;;;;3.73;1.70;;;;;;;;;;5035881;28;20290;-68
2023/10/29 10:57:41;;;;;;;3.00;1.40;;;;;;;;;;5035861;28;20218;-67
2023/10/29 11:00:10;;;;;;;4.43;1.50;;;;;;;;;;5051078;28;20194;-68
2023/10/29 11:02:41;;;;;;;2.60;1.50;;;;;;;;;;5035773;28;20171;-67
2023/10/29 11:05:11;;;;;;;3.37;1.67;;;;;;;;;;5051240;28;20639;-70
2023/10/29 11:07:37;;;;;;;2.93;1.73;;;;;;;;;;5050965;28;20648;-68
2023/10/29 11:10:04;;;;;;;3.27;1.50;;;;;;;;;;5035383;28;20183;-68
2023/10/29 11:12:36;;;;;;;2.87;1.73;;;;;;;;;;5050623;28;20191;-68
2023/10/29 11:15:15;;;;;;;2.97;1.50;;;;;;;;;;5035092;28;20529;-68
2023/10/29 11:17:57;;;;;;;2.90;1.63;;;;;;;;;;5035510;28;20266;-68
2023/10/29 11:23:08;;;;;;;2.50;1.67;;;;;;;;;;5035185;28;20210;-68
2023/10/29 11:25:34;;;;;;;4.90;2.03;;;;;;;;;;5050110;28;20231;-68
2023/10/29 11:28:01;;;;;;;3.10;1.57;;;;;;;;;;5035186;28;20266;-68
2023/10/29 11:30:28;;;;;;;4.53;1.63;;;;;;;;;;5050123;28;20676;-68
2023/10/29 11:33:06;;;;;;;6.13;2.00;;;;;;;;;;5035366;28;20183;-68
2023/10/29 11:35:32;;;;;;;5.00;1.90;;;;;;;;;;5049950;28;20326;-68
2023/10/29 11:38:00;;;;;;;4.00;1.70;;;;;;;;;;5035025;28;20206;-68
2023/10/29 11:40:26;;;;;;;6.03;2.10;;;;;;;;;;5050099;28;20184;-68
2023/10/29 11:42:52;;;;;;;3.53;1.83;;;;;;;;;;5049906;28;20316;-68
2023/10/29 11:45:27;;;;;;;9.03;5.20;;;;;;;;;;5034807;28;20206;-68
2023/10/29 11:48:09;;;;;;;4.43;1.80;;;;;;;;;;5034624;28;20243;-68
2023/10/29 11:50:36;;;;;;;12.50;7.17;;;;;;;;;;5049844;28;20602;-68
2023/10/29 11:53:02;;;;;;;3.20;1.90;;;;;;;;;;5049782;28;20191;-68
2023/10/29 11:55:29;;;;;;;3.73;2.17;;;;;;;;;;5034539;28;20207;-68
2023/10/29 11:57:55;;;;;;;5.13;1.67;;;;;;;;;;5049707;28;20193;-68
2023/10/29 12:00:24;;;;;;;4.37;1.70;;;;;;;;;;5034869;28;20175;-68
2023/10/29 12:02:50;;;;;;;4.13;1.70;;;;;;;;;;5034426;28;20547;-68
2023/10/29 12:05:16;;;;;;;4.67;1.87;;;;;;;;;;5049612;28;20199;-68
2023/10/29 12:07:42;;;;;;;4.83;1.60;;;;;;;;;;5050338;28;20179;-68
2023/10/29 12:10:08;;;;;;;4.43;1.70;;;;;;;;;;5034230;28;20262;-68
2023/10/29 12:12:35;;;;;;;3.87;1.50;;;;;;;;;;5034212;28;20244;-68
2023/10/29 12:15:01;;;;;;;5.97;1.93;;;;;;;;;;5034406;28;20207;-68
2023/10/29 12:17:27;;;;;;;3.47;1.90;;;;;;;;;;5034219;28;20258;-68
2023/10/29 12:19:53;;;;;;;4.90;1.60;;;;;;;;;;5034264;28;20213;-68
2023/10/29 12:22:20;;;;;;;2.83;1.60;;;;;;;;;;5049193;28;20270;-68
2023/10/29 12:24:48;;;;;;;2.53;1.13;;;;;;;;;;5034102;28;20211;-68
2023/10/29 12:27:15;;;;;;;4.07;1.80;;;;;;;;;;5049278;28;20205;-68
2023/10/29 12:29:41;;;;;;;3.60;1.60;;;;;;;;;;5049247;28;20183;-68
2023/10/29 12:32:15;;;;;;;3.60;1.70;;;;;;;;;;5049137;28;20390;-68
2023/10/29 12:34:56;;;;;;;4.03;1.60;;;;;;;;;;5049064;28;20209;-68
2023/10/29 12:37:21;;;;;;;5.13;1.73;;;;;;;;;;5033850;28;20183;-68
2023/10/29 12:39:49;;;;;;;3.40;1.33;;;;;;;;;;5049089;28;20194;-68
2023/10/29 12:42:15;;;;;;;4.00;1.67;;;;;;;;;;5049314;28;20237;-67
2023/10/29 12:44:51;;;;;;;5.10;2.00;;;;;;;;;;5049420;28;20597;-67
2023/10/29 12:47:17;;;;;;;3.73;1.70;;;;;;;;;;5034687;28;20268;-68
2023/10/29 12:49:43;;;;;;;4.63;1.83;;;;;;;;;;5049695;28;20222;-68
2023/10/29 12:52:12;;;;;;;4.20;2.27;;;;;;;;;;5033872;28;20190;-67
2023/10/29 12:54:42;;;;;;;3.40;2.37;;;;;;;;;;5033673;28;20752;-68
2023/10/29 12:57:15;;;;;;;4.40;2.03;;;;;;;;;;5034002;28;20281;-69
2023/10/29 12:59:42;;;;;;;3.27;1.80;;;;;;;;;;5048962;28;20183;-68
2023/10/29 13:02:20;;;;;;;3.97;2.10;;;;;;;;;;5033647;28;20210;-68
2023/10/29 13:04:48;;;;;;;3.97;2.20;;;;;;;;;;5033844;28;20198;-68
2023/10/29 13:07:17;;;;;;;3.00;1.60;;;;;;;;;;5049371;28;20191;-68
2023/10/29 13:09:43;;;;;;;1.47;1.37;;;;;;;;;;5034656;28;20178;-68
2023/10/29 13:12:10;;;;;;;3.73;1.50;;;;;;;;;;5033498;28;20180;-66
2023/10/29 13:14:36;;;;;;;11.63;6.17;;;;;;;;;;5057178;22;20235;-69
2023/10/29 13:17:06;;;;;;;4.93;2.57;;;;;;;;;;5033290;28;20199;-68
2023/10/29 13:19:33;;;;;;;1.67;1.20;;;;;;;;;;5033038;28;20203;-68
2023/10/29 13:21:59;;;;;;;3.07;1.20;;;;;;;;;;5031988;28;20205;-68
2023/10/29 13:24:25;;;;;;;2.40;1.40;;;;;;;;;;5033299;28;20195;-69
2023/10/29 13:26:52;;;;;;;1.67;1.40;;;;;;;;;;5033316;28;20171;-69
2023/10/29 13:29:18;;;;;;;4.37;1.50;;;;;;;;;;5033123;28;20202;-68
2023/10/29 13:31:45;;;;;;;3.13;1.20;;;;;;;;;;5033312;28;20562;-69
2023/10/29 13:34:13;;;;;;;2.90;1.40;;;;;;;;;;5048273;28;20209;-68
2023/10/29 13:36:39;;;;;;;5.63;1.93;;;;;;;;;;5033057;28;20636;-67
2023/10/29 13:39:05;;;;;;;3.43;1.80;;;;;;;;;;5033387;28;20672;-66
2023/10/29 13:41:32;;;;;;;4.53;1.80;;;;;;;;;;5033407;28;20641;-66
2023/10/29 13:43:58;;;;;;;3.53;1.83;;;;;;;;;;5048295;28;20637;-66
2023/10/29 13:46:25;;;;;;;2.47;1.40;;;;;;;;;;5032828;28;20215;-66
2023/10/29 13:48:53;;;;;;;3.27;1.60;;;;;;;;;;5033130;28;20203;-67
2023/10/29 13:51:19;;;;;;;2.80;1.30;;;;;;;;;;5032953;28;20171;-66
2023/10/29 13:53:45;;;;;;;2.00;1.20;;;;;;;;;;5033428;28;20688;-66
2023/10/29 13:56:11;;;;;;;1.80;1.40;;;;;;;;;;5032836;28;20739;-66
2023/10/29 13:58:41;;;;;;;2.67;1.37;;;;;;;;;;5048124;28;20266;-66
2023/10/29 14:01:21;;;;;;;16.07;14.73;;;;;;;;;;5048121;28;20179;-67
2023/10/29 14:03:48;;;;;;;22.63;17.50;;;;;;;;;;5031559;28;20293;-67
2023/10/29 14:06:14;;;;;;;5.27;4.30;;;;;;;;;;5031547;28;20199;-66
2023/10/29 14:08:40;;;;;;;6.27;5.17;;;;;;;;;;5033274;28;20184;-69
2023/10/29 14:11:06;;;;;;;26.17;23.40;;;;;;;;;;5047978;28;20623;-67
2023/10/29 14:13:32;;;;;;;19.07;17.17;;;;;;;;;;5031273;28;20302;-67
2023/10/29 14:16:00;;;;;;;18.40;11.87;;;;;;;;;;5032611;28;20242;-67
2023/10/29 14:18:26;;;;;;;2.80;2.33;;;;;;;;;;5033075;28;20581;-67
2023/10/29 14:20:52;;;;;;;3.43;1.53;;;;;;;;;;5032750;28;20175;-67
2023/10/29 14:23:18;;;;;;;7.07;5.40;;;;;;;;;;5032893;28;20202;-66
2023/10/29 14:25:44;;;;;;;5.53;5.00;;;;;;;;;;5034471;28;20228;-67
2023/10/29 14:28:11;;;;;;;3.90;2.47;;;;;;;;;;5036557;28;20211;-69
2023/10/29 14:30:37;;;;;;;3.13;2.00;;;;;;;;;;5036219;28;20617;-67
2023/10/29 14:33:03;;;;;;;4.00;1.30;;;;;;;;;;5051603;28;20206;-66
2023/10/29 14:35:29;;;;;;;1.93;1.70;;;;;;;;;;5051538;28;20274;-66
2023/10/29 14:37:55;;;;;;;3.43;2.07;;;;;;;;;;5036278;28;20189;-66
2023/10/29 14:40:21;;;;;;;1.93;1.40;;;;;;;;;;5052008;28;20175;-66
2023/10/29 14:42:47;;;;;;;1.23;0.97;;;;;;;;;;5051480;28;20178;-66